createdAt,value
2022-10-05T00:01:55.106Z,57.78
2022-10-05T00:04:23.949Z,59.10
2022-10-05T00:06:50.500Z,58.99
2022-10-05T00:09:20.894Z,59.18
2022-10-05T00:11:49.076Z,58.02
2022-10-05T00:14:40.767Z,59.38
2022-10-05T00:17:10.492Z,58.78
2022-10-05T00:19:38.457Z,59.19
2022-10-05T00:22:14.492Z,58.41
2022-10-05T00:24:41.299Z,59.04
2022-10-05T00:27:35.198Z,58.50
2022-10-05T00:30:13.284Z,59.13
2022-10-05T00:32:39.967Z,59.22
2022-10-05T00:35:07.232Z,60.25
2022-10-05T00:37:33.944Z,58.79
2022-10-05T00:40:01.033Z,59.96
2022-10-05T00:43:06.356Z,59.54
2022-10-05T00:45:41.649Z,59.85
2022-10-05T00:48:20.721Z,59.16
2022-10-05T00:51:08.827Z,58.85
2022-10-05T00:53:50.732Z,59.05
2022-10-05T00:56:26.680Z,59.27
2022-10-05T00:59:25.316Z,59.12
2022-10-05T01:02:08.986Z,59.88
2022-10-05T01:04:59.289Z,59.00
2022-10-05T01:07:26.000Z,59.60
2022-10-05T01:10:16.435Z,59.59
2022-10-05T01:13:20.251Z,59.81
2022-10-05T01:15:58.102Z,60.74
2022-10-05T01:18:49.843Z,60.14
2022-10-05T01:21:25.604Z,60.70
2022-10-05T01:24:10.541Z,60.03
2022-10-05T01:27:15.893Z,60.02
2022-10-05T01:29:42.496Z,60.16
2022-10-05T01:32:18.783Z,61.05
2022-10-05T01:34:58.491Z,60.94
2022-10-05T01:37:58.830Z,60.23
2022-10-05T01:40:34.249Z,61.60
2022-10-05T01:43:25.992Z,59.89
2022-10-05T01:45:59.713Z,61.06
2022-10-05T01:48:46.813Z,60.89
2022-10-05T01:51:42.920Z,60.54
2022-10-05T01:54:30.779Z,60.27
2022-10-05T01:57:20.117Z,60.34
2022-10-05T02:00:07.665Z,61.15
2022-10-05T02:02:48.922Z,60.96
2022-10-05T02:05:24.203Z,60.77
2022-10-05T02:08:14.271Z,60.44
2022-10-05T02:10:59.083Z,60.91
2022-10-05T02:13:48.772Z,61.20
2022-10-05T02:16:33.796Z,61.17
2022-10-05T02:19:26.151Z,61.02
2022-10-05T02:22:03.673Z,61.87
2022-10-05T02:24:38.448Z,61.02
2022-10-05T02:27:08.518Z,61.89
2022-10-05T02:29:39.848Z,61.75
2022-10-05T02:32:24.026Z,62.96
2022-10-05T02:34:51.020Z,61.55
2022-10-05T02:37:29.956Z,61.64
2022-10-05T02:40:23.455Z,61.19
2022-10-05T02:43:14.990Z,62.05
2022-10-05T02:45:47.767Z,61.96
2022-10-05T02:48:35.943Z,61.20
2022-10-05T02:51:21.740Z,61.35
2022-10-05T02:54:03.918Z,61.65
2022-10-05T02:56:58.306Z,60.80
2022-10-05T02:59:37.364Z,61.03
2022-10-05T03:02:18.547Z,61.07
2022-10-05T03:05:10.900Z,60.96
2022-10-05T03:07:48.844Z,61.14
2022-10-05T03:10:25.006Z,62.32
2022-10-05T03:12:58.503Z,60.18
2022-10-05T03:16:02.638Z,60.13
2022-10-05T03:19:03.998Z,59.90
2022-10-05T03:21:59.010Z,59.33
2022-10-05T03:24:50.742Z,60.85
2022-10-05T03:27:23.220Z,60.36
2022-10-05T03:30:16.340Z,60.73
2022-10-05T03:32:58.762Z,60.69
2022-10-05T03:35:34.627Z,61.14
2022-10-05T03:38:17.969Z,61.49
2022-10-05T03:41:04.063Z,61.57
2022-10-05T03:43:45.543Z,61.53
2022-10-05T03:46:55.465Z,61.18
2022-10-05T03:49:42.355Z,62.40
2022-10-05T03:52:16.220Z,61.48
2022-10-05T03:55:22.835Z,61.13
2022-10-05T03:57:54.574Z,62.42
2022-10-05T04:00:25.962Z,62.98
2022-10-05T04:03:16.893Z,60.97
2022-10-05T04:06:10.510Z,61.14
2022-10-05T04:08:48.109Z,61.67
2022-10-05T04:11:27.871Z,61.83
2022-10-05T04:14:00.950Z,61.77
2022-10-05T04:16:34.924Z,61.63
2022-10-05T04:19:10.962Z,61.75
2022-10-05T04:21:46.672Z,61.08
2022-10-05T04:24:32.453Z,60.73
2022-10-05T04:27:07.912Z,62.21
2022-10-05T04:29:57.463Z,60.88
2022-10-05T04:32:36.223Z,62.28
2022-10-05T04:35:41.732Z,61.39
2022-10-05T04:38:41.130Z,61.34
2022-10-05T04:41:38.798Z,62.50
2022-10-05T04:44:24.499Z,61.94
2022-10-05T04:47:25.636Z,63.49
2022-10-05T04:50:16.869Z,63.41
2022-10-05T04:53:09.234Z,63.51
2022-10-05T04:55:54.527Z,63.23
2022-10-05T04:58:36.734Z,64.49
2022-10-05T05:01:17.736Z,63.65
2022-10-05T05:04:22.502Z,62.97
2022-10-05T05:07:15.696Z,63.01
2022-10-05T05:10:25.072Z,63.28
2022-10-05T05:13:00.696Z,62.84
2022-10-05T05:15:51.653Z,62.74
2022-10-05T05:18:33.624Z,63.24
2022-10-05T05:21:06.847Z,62.28
2022-10-05T05:23:40.368Z,63.10
2022-10-05T05:26:14.727Z,62.58
2022-10-05T05:29:14.220Z,61.59
2022-10-05T05:31:49.372Z,63.32
2022-10-05T05:34:28.092Z,62.63
2022-10-05T05:37:12.541Z,62.60
2022-10-05T05:40:01.064Z,61.97
2022-10-05T05:42:49.377Z,62.04
2022-10-05T05:45:42.458Z,62.12
2022-10-05T05:48:38.539Z,61.11
2022-10-05T05:51:14.725Z,62.22
2022-10-05T05:53:48.106Z,62.76
2022-10-05T05:56:22.144Z,62.61
2022-10-05T05:58:54.697Z,62.77
2022-10-05T06:01:33.607Z,62.40
2022-10-05T06:04:14.802Z,62.91
2022-10-05T06:06:51.917Z,62.04
2022-10-05T06:09:33.834Z,61.26
2022-10-05T06:12:29.960Z,61.99
2022-10-05T06:14:59.288Z,62.21
2022-10-05T06:17:45.163Z,62.63
2022-10-05T06:20:24.274Z,63.41
2022-10-05T06:22:52.488Z,62.63
2022-10-05T06:25:42.332Z,61.00
2022-10-05T06:28:11.394Z,62.30
2022-10-05T06:31:09.366Z,61.39
2022-10-05T06:33:53.897Z,62.29
2022-10-05T06:36:35.062Z,62.08
2022-10-05T06:39:15.770Z,62.63
2022-10-05T06:41:53.359Z,63.99
2022-10-05T06:44:34.428Z,63.34
2022-10-05T06:47:37.944Z,63.06
2022-10-05T06:50:36.284Z,62.17
2022-10-05T06:53:27.129Z,62.71
2022-10-05T06:56:08.848Z,62.93
2022-10-05T06:58:45.409Z,61.51
2022-10-05T07:01:21.074Z,63.03
2022-10-05T07:04:24.165Z,62.12
2022-10-05T07:07:19.744Z,61.20
2022-10-05T07:10:10.732Z,60.98
2022-10-05T07:12:43.858Z,62.81
2022-10-05T07:15:25.528Z,61.88
2022-10-05T07:18:16.952Z,62.32
2022-10-05T07:20:52.765Z,62.01
2022-10-05T07:23:59.367Z,59.81
2022-10-05T07:26:38.376Z,61.11
2022-10-05T07:29:08.122Z,60.65
2022-10-05T07:31:43.141Z,59.18
2022-10-05T07:34:22.386Z,58.95
2022-10-05T07:37:18.096Z,58.23
2022-10-05T07:40:08.321Z,58.96
2022-10-05T07:42:53.565Z,60.48
2022-10-05T07:45:33.717Z,58.72
2022-10-05T07:48:13.858Z,59.62
2022-10-05T07:51:24.375Z,59.01
2022-10-05T07:54:16.096Z,59.04
2022-10-05T07:56:54.449Z,58.45
2022-10-05T07:59:34.265Z,59.46
2022-10-05T08:02:33.036Z,57.88
2022-10-05T08:05:16.423Z,58.98
2022-10-05T08:07:43.227Z,60.95
2022-10-05T08:10:41.746Z,61.43
2022-10-05T08:13:29.630Z,59.29
2022-10-05T08:16:03.217Z,57.80
2022-10-05T08:18:44.807Z,58.01
2022-10-05T08:21:16.180Z,57.74
2022-10-05T08:23:58.194Z,56.99
2022-10-05T08:26:33.851Z,57.40
2022-10-05T08:29:21.826Z,57.59
2022-10-05T08:31:53.248Z,57.93
2022-10-05T08:34:49.269Z,57.26
2022-10-05T08:37:21.953Z,58.42
2022-10-05T08:40:21.402Z,57.04
2022-10-05T08:43:12.317Z,58.12
2022-10-05T08:45:45.454Z,57.98
2022-10-05T08:48:31.120Z,57.59
2022-10-05T08:51:35.016Z,57.90
2022-10-05T08:54:26.548Z,57.00
2022-10-05T08:57:11.837Z,57.71
2022-10-05T09:00:10.554Z,56.86
2022-10-05T09:03:12.603Z,57.18
2022-10-05T09:05:42.290Z,57.29
2022-10-05T09:08:11.969Z,57.04
2022-10-05T09:10:59.601Z,56.16
2022-10-05T09:13:29.224Z,56.42
2022-10-05T09:16:04.940Z,56.52
2022-10-05T09:19:08.988Z,57.01
2022-10-05T09:21:56.620Z,55.76
2022-10-05T09:24:44.999Z,55.80
2022-10-05T09:27:19.998Z,56.08
2022-10-05T09:30:14.400Z,55.56
2022-10-05T09:33:14.152Z,54.94
2022-10-05T09:35:46.799Z,55.24
2022-10-05T09:38:31.870Z,55.01
2022-10-05T09:41:10.381Z,53.71
2022-10-05T09:43:55.425Z,55.22
2022-10-05T09:46:22.270Z,55.51
2022-10-05T09:49:20.240Z,54.46
2022-10-05T09:52:26.110Z,56.07
2022-10-05T09:54:57.020Z,55.69
2022-10-05T09:57:49.371Z,54.85
2022-10-05T10:00:40.868Z,54.29
2022-10-05T10:03:10.391Z,54.65
2022-10-05T10:06:01.664Z,52.83
2022-10-05T10:08:46.352Z,53.06
2022-10-05T10:11:15.986Z,53.74
2022-10-05T10:14:23.957Z,53.03
2022-10-05T10:17:02.969Z,52.51
2022-10-05T10:19:48.233Z,53.57
2022-10-05T10:22:38.537Z,52.59
2022-10-05T10:25:19.273Z,52.22
2022-10-05T10:28:13.321Z,53.52
2022-10-05T10:31:21.667Z,52.48
2022-10-05T10:34:25.898Z,53.16
2022-10-05T10:37:33.693Z,52.51
2022-10-05T10:40:31.533Z,52.76
2022-10-05T10:43:17.023Z,53.40
2022-10-05T10:45:46.615Z,52.84
2022-10-05T10:48:19.119Z,52.88
2022-10-05T10:51:00.647Z,53.32
2022-10-05T10:54:03.652Z,53.51
2022-10-05T10:57:04.528Z,52.75
2022-10-05T10:59:52.936Z,51.55
2022-10-05T11:02:37.280Z,50.88
2022-10-05T11:05:23.081Z,52.02
2022-10-05T11:08:25.721Z,51.57
2022-10-05T11:10:55.341Z,51.85
2022-10-05T11:13:43.912Z,52.54
2022-10-05T11:16:24.983Z,52.66
2022-10-05T11:19:16.705Z,48.86
2022-10-05T11:21:55.113Z,49.27
2022-10-05T11:24:47.917Z,48.38
2022-10-05T11:27:14.528Z,49.25
2022-10-05T11:29:59.307Z,48.96
2022-10-05T11:32:56.250Z,48.97
2022-10-05T11:35:37.001Z,50.69
2022-10-05T11:38:34.309Z,51.71
2022-10-05T11:41:02.244Z,52.64
2022-10-05T11:43:43.922Z,51.77
2022-10-05T11:46:16.507Z,53.02
2022-10-05T11:49:00.524Z,53.90
2022-10-05T11:51:49.161Z,54.01
2022-10-05T11:54:29.548Z,53.07
2022-10-05T11:57:05.607Z,53.51
2022-10-05T11:59:53.718Z,53.10
2022-10-05T12:02:53.184Z,53.69
2022-10-05T12:05:32.484Z,53.16
2022-10-05T12:08:36.408Z,52.97
2022-10-05T12:11:11.501Z,53.53
2022-10-05T12:14:27.507Z,52.11
2022-10-05T12:17:20.189Z,52.98
2022-10-05T12:20:03.736Z,53.75
2022-10-05T12:23:11.809Z,53.67
2022-10-05T12:25:56.466Z,54.19
2022-10-05T12:28:35.636Z,53.51
2022-10-05T12:31:23.411Z,53.74
2022-10-05T12:34:16.537Z,53.38
2022-10-05T12:37:05.398Z,53.21
2022-10-05T12:39:47.656Z,52.42
2022-10-05T12:42:41.884Z,52.36
2022-10-05T12:45:39.688Z,50.16
2022-10-05T12:48:25.106Z,50.32
2022-10-05T12:51:08.872Z,52.52
2022-10-05T12:53:53.558Z,51.23
2022-10-05T12:56:34.659Z,50.45
2022-10-05T12:59:15.676Z,49.77
2022-10-05T13:01:55.374Z,50.23
2022-10-05T13:04:33.977Z,51.29
2022-10-05T13:07:09.557Z,50.92
2022-10-05T13:09:56.217Z,49.21
2022-10-05T13:12:47.979Z,48.41
2022-10-05T13:15:26.835Z,49.84
2022-10-05T13:18:16.582Z,49.64
2022-10-05T13:20:51.686Z,49.16
2022-10-05T13:23:40.525Z,49.56
2022-10-05T13:26:09.913Z,50.03
2022-10-05T13:28:52.496Z,49.98
2022-10-05T13:31:24.729Z,49.16
2022-10-05T13:34:01.184Z,48.21
2022-10-05T13:36:42.285Z,47.41
2022-10-05T13:39:26.819Z,48.30
2022-10-05T13:42:06.261Z,48.70
2022-10-05T13:44:32.968Z,47.99
2022-10-05T13:47:12.967Z,49.41
2022-10-05T13:50:24.348Z,49.73
2022-10-05T13:53:05.430Z,49.64
2022-10-05T13:55:38.128Z,49.11
2022-10-05T13:58:19.412Z,49.59
2022-10-05T14:01:00.267Z,48.91
2022-10-05T14:03:36.026Z,49.36
2022-10-05T14:06:12.285Z,48.36
2022-10-05T14:08:52.700Z,46.96
2022-10-05T14:11:34.896Z,45.18
2022-10-05T14:14:04.457Z,46.56
2022-10-05T14:16:33.447Z,47.01
2022-10-05T14:19:06.330Z,46.34
2022-10-05T14:21:47.320Z,48.58
2022-10-05T14:24:45.272Z,48.12
2022-10-05T14:27:23.978Z,48.33
2022-10-05T14:30:14.045Z,49.34
2022-10-05T14:32:51.520Z,50.33
2022-10-05T14:35:24.140Z,50.95
2022-10-05T14:37:57.598Z,51.00
2022-10-05T14:40:26.460Z,51.33
2022-10-05T14:42:53.650Z,51.13
2022-10-05T14:45:25.862Z,51.22
2022-10-05T14:48:12.862Z,51.29
2022-10-05T14:50:52.993Z,50.78
2022-10-05T14:53:22.641Z,51.56
2022-10-05T14:56:01.897Z,51.62
2022-10-05T14:59:19.968Z,51.43
2022-10-05T15:01:57.600Z,51.75
2022-10-05T15:04:43.081Z,51.01
2022-10-05T15:07:17.913Z,51.26
2022-10-05T15:10:02.520Z,52.04
2022-10-05T15:12:38.362Z,51.48
2022-10-05T15:15:25.458Z,50.91
2022-10-05T15:17:59.473Z,51.77
2022-10-05T15:20:46.480Z,51.15
2022-10-05T15:23:24.910Z,51.15
2022-10-05T15:26:01.429Z,51.82
2022-10-05T15:28:49.818Z,51.20
2022-10-05T15:31:25.908Z,50.54
2022-10-05T15:34:02.955Z,50.90
2022-10-05T15:37:07.823Z,51.33
2022-10-05T15:39:44.433Z,51.03
2022-10-05T15:42:18.016Z,51.14
2022-10-05T15:45:19.143Z,51.12
2022-10-05T15:48:18.001Z,50.89
2022-10-05T15:50:57.014Z,50.27
2022-10-05T15:53:35.788Z,50.85
2022-10-05T15:56:11.404Z,50.95
2022-10-05T15:58:53.194Z,50.50
2022-10-05T16:01:31.873Z,51.69
2022-10-05T16:04:05.684Z,49.63
2022-10-05T16:07:05.757Z,50.97
2022-10-05T16:10:03.413Z,50.48
2022-10-05T16:12:51.317Z,51.00
2022-10-05T16:15:42.917Z,50.45
2022-10-05T16:18:34.016Z,51.72
2022-10-05T16:21:03.516Z,52.14
2022-10-05T16:23:40.247Z,52.45
2022-10-05T16:26:25.541Z,53.58
2022-10-05T16:28:57.781Z,55.13
2022-10-05T16:31:34.684Z,54.93
2022-10-05T16:34:09.422Z,54.96
2022-10-05T16:36:55.934Z,55.00
2022-10-05T16:39:50.048Z,55.54
2022-10-05T16:42:16.700Z,56.66
2022-10-05T16:44:49.157Z,56.54
2022-10-05T16:47:42.545Z,57.53
2022-10-05T16:50:21.511Z,57.66
2022-10-05T16:52:55.544Z,57.71
2022-10-05T16:55:31.188Z,58.29
2022-10-05T16:58:01.710Z,58.74
2022-10-05T17:00:28.331Z,58.80
2022-10-05T17:03:04.687Z,58.71
2022-10-05T17:06:08.581Z,58.93
2022-10-05T17:09:06.492Z,58.49
2022-10-05T17:11:56.384Z,57.93
2022-10-05T17:14:35.226Z,60.47
2022-10-05T17:17:17.414Z,59.44
2022-10-05T17:19:50.809Z,60.21
2022-10-05T17:22:50.816Z,59.48
2022-10-05T17:25:35.135Z,60.86
2022-10-05T17:28:23.225Z,61.27
2022-10-05T17:30:58.879Z,61.40
2022-10-05T17:33:29.048Z,61.95
2022-10-05T17:36:06.507Z,62.13
2022-10-05T17:38:36.044Z,62.18
2022-10-05T17:41:18.924Z,62.26
2022-10-05T17:44:24.941Z,60.42
2022-10-05T17:46:52.875Z,62.23
2022-10-05T17:49:40.574Z,62.03
2022-10-05T17:52:45.175Z,62.09
2022-10-05T17:55:25.753Z,61.77
2022-10-05T17:57:53.162Z,62.59
2022-10-05T18:00:25.859Z,62.39
2022-10-05T18:02:57.478Z,63.02
2022-10-05T18:05:28.844Z,62.59
2022-10-05T18:08:15.713Z,61.25
2022-10-05T18:11:12.532Z,60.60
2022-10-05T18:13:50.094Z,59.71
2022-10-05T18:16:54.540Z,59.65
2022-10-05T18:19:22.417Z,59.94
2022-10-05T18:22:17.835Z,59.29
2022-10-05T18:25:10.304Z,58.20
2022-10-05T18:27:51.829Z,58.84
2022-10-05T18:30:24.227Z,58.46
2022-10-05T18:33:20.386Z,57.97
2022-10-05T18:35:56.345Z,58.18
2022-10-05T18:38:41.606Z,57.85
2022-10-05T18:41:14.218Z,57.91
2022-10-05T18:43:49.140Z,58.07
2022-10-05T18:46:26.400Z,58.19
2022-10-05T18:49:02.041Z,58.01
2022-10-05T18:51:55.748Z,57.72
2022-10-05T18:54:57.674Z,57.76
2022-10-05T18:57:41.322Z,56.33
2022-10-05T19:00:16.255Z,57.01
2022-10-05T19:03:10.895Z,56.78
2022-10-05T19:06:03.408Z,56.74
2022-10-05T19:08:53.138Z,56.88
2022-10-05T19:11:47.165Z,57.59
2022-10-05T19:14:51.977Z,57.50
2022-10-05T19:17:26.953Z,57.98
2022-10-05T19:20:13.010Z,56.71
2022-10-05T19:23:02.157Z,57.59
2022-10-05T19:25:38.025Z,57.50
2022-10-05T19:28:18.125Z,57.86
2022-10-05T19:31:01.111Z,57.86
2022-10-05T19:33:55.796Z,57.66
2022-10-05T19:36:34.606Z,57.36
2022-10-05T19:39:12.320Z,56.97
2022-10-05T19:42:10.463Z,57.09
2022-10-05T19:44:49.161Z,57.81
2022-10-05T19:47:24.515Z,59.16
2022-10-05T19:49:56.762Z,58.26
2022-10-05T19:52:48.991Z,57.84
2022-10-05T19:55:18.840Z,58.09
2022-10-05T19:57:47.812Z,58.93
2022-10-05T20:00:26.253Z,58.96
2022-10-05T20:03:17.661Z,58.33
2022-10-05T20:05:45.080Z,60.25
2022-10-05T20:08:19.741Z,59.20
2022-10-05T20:11:13.712Z,59.49
2022-10-05T20:13:53.352Z,59.71
2022-10-05T20:16:50.161Z,59.40
2022-10-05T20:19:50.773Z,60.02
2022-10-05T20:22:39.566Z,59.93
2022-10-05T20:25:07.550Z,60.71
2022-10-05T20:27:37.255Z,61.18
2022-10-05T20:30:05.444Z,59.68
2022-10-05T20:32:32.053Z,59.98
2022-10-05T20:34:58.682Z,61.49
2022-10-05T20:37:25.377Z,60.44
2022-10-05T20:39:52.224Z,60.74
2022-10-05T20:42:20.204Z,60.29
2022-10-05T20:44:46.986Z,60.08
2022-10-05T20:47:13.890Z,60.83
2022-10-05T20:49:44.482Z,61.13
2022-10-05T20:52:15.128Z,61.29
2022-10-05T20:54:42.230Z,60.89
2022-10-05T20:57:09.566Z,60.67
2022-10-05T20:59:36.501Z,60.37
2022-10-05T21:02:03.824Z,61.21
2022-10-05T21:04:40.829Z,60.70
2022-10-05T21:07:08.374Z,61.47
2022-10-05T21:09:37.951Z,62.34
2022-10-05T21:12:04.807Z,61.75
2022-10-05T21:14:34.371Z,61.63
2022-10-05T21:17:02.152Z,61.36
2022-10-05T21:19:29.583Z,61.47
2022-10-05T21:21:59.224Z,61.37
2022-10-05T21:24:26.208Z,60.73
2022-10-05T21:26:55.255Z,61.12
2022-10-05T21:29:22.185Z,61.03
2022-10-05T21:31:48.816Z,61.61
2022-10-05T21:34:15.808Z,61.29
2022-10-05T21:36:42.419Z,60.95
2022-10-05T21:39:08.996Z,61.34
2022-10-05T21:41:35.579Z,62.19
2022-10-05T21:44:02.267Z,62.40
2022-10-05T21:46:29.599Z,61.48
2022-10-05T21:48:56.221Z,60.76
2022-10-05T21:51:25.450Z,62.04
2022-10-05T21:53:56.691Z,61.19
2022-10-05T21:56:28.291Z,61.40
2022-10-05T21:58:55.206Z,60.92
2022-10-05T22:01:23.040Z,62.30
2022-10-05T22:03:50.041Z,61.86
2022-10-05T22:06:16.635Z,61.09
2022-10-05T22:08:43.384Z,61.40
2022-10-05T22:11:12.981Z,61.65
2022-10-05T22:13:48.639Z,61.55
2022-10-05T22:16:18.337Z,61.69
2022-10-05T22:18:45.251Z,61.73
2022-10-05T22:21:13.821Z,62.21
2022-10-05T22:23:42.216Z,62.03
2022-10-05T22:26:12.920Z,61.25
2022-10-05T22:28:40.114Z,61.96
2022-10-05T22:31:09.283Z,61.25
2022-10-05T22:33:37.079Z,62.22
2022-10-05T22:36:05.583Z,61.95
2022-10-05T22:38:32.386Z,61.63
2022-10-05T22:40:59.199Z,61.08
2022-10-05T22:43:29.020Z,62.25
2022-10-05T22:45:56.221Z,62.80
2022-10-05T22:48:23.001Z,63.13
2022-10-05T22:50:49.713Z,62.80
2022-10-05T22:53:16.551Z,62.05
2022-10-05T22:55:43.166Z,62.64
2022-10-05T22:58:09.885Z,62.43
2022-10-05T23:00:56.849Z,62.83
2022-10-05T23:03:23.439Z,63.10
2022-10-05T23:05:56.837Z,62.38
2022-10-05T23:08:23.451Z,61.81
2022-10-05T23:10:50.003Z,61.07
2022-10-05T23:13:16.721Z,62.21
2022-10-05T23:15:43.779Z,61.82
2022-10-05T23:18:12.178Z,61.63
2022-10-05T23:20:40.231Z,61.99
2022-10-05T23:23:06.838Z,61.30
2022-10-05T23:25:33.483Z,61.55
2022-10-05T23:28:02.679Z,61.48
2022-10-05T23:30:29.597Z,61.19
2022-10-05T23:32:56.316Z,62.53
2022-10-05T23:35:23.003Z,62.30
2022-10-05T23:37:49.600Z,62.44
2022-10-05T23:40:16.262Z,61.96
2022-10-05T23:42:42.938Z,61.86
2022-10-05T23:45:11.509Z,61.96
2022-10-05T23:47:39.544Z,62.33
2022-10-05T23:50:07.319Z,61.81
2022-10-05T23:52:34.944Z,62.28
2022-10-05T23:55:04.031Z,62.55
2022-10-05T23:57:30.988Z,61.30
2022-10-05T23:59:57.643Z,61.87
